Time;durP1;ratioP1;P1;durP2;ratioP2;P2;SDS_P1;SDS_P2;PMS_P1;PMS_P2;Temp;Humidity;BMP_temperature;BMP_pressure;BME280_temperature;BME280_humidity;BME280_pressure;Samples;Min_cycle;Max_cycle;Signal;HPM_P1;HPM_P2
2022/01/04 00:00:55;;;;;;;20.08;5.53;;;;;;;8.60;100.00;100233.91;4843912;29;20038;-73
2022/01/04 00:03:20;;;;;;;17.40;6.35;;;;;;;8.61;100.00;100225.91;4843030;29;20038;-73
2022/01/04 00:05:45;;;;;;;20.33;5.63;;;;;;;8.58;100.00;100218.16;4843542;29;20052;-71
2022/01/04 00:08:12;;;;;;;21.02;6.10;;;;;;;8.63;100.00;100197.66;4843645;29;20036;-72
2022/01/04 00:10:38;;;;;;;19.73;6.47;;;;;;;8.62;100.00;100218.81;4843242;29;20107;-72
2022/01/04 00:13:23;;;;;;;18.98;7.38;;;;;;;8.61;100.00;100196.03;4843359;29;20029;-73
2022/01/04 00:15:55;;;;;;;19.70;7.03;;;;;;;8.63;100.00;100192.38;4825209;29;20446;-72
2022/01/04 00:18:22;;;;;;;20.25;7.00;;;;;;;8.59;100.00;100185.53;4825151;29;20034;-73
2022/01/04 00:20:48;;;;;;;18.23;7.35;;;;;;;8.56;100.00;100177.75;4825201;29;20055;-72
2022/01/04 00:23:14;;;;;;;19.50;7.53;;;;;;;8.56;100.00;100175.13;4825112;29;20121;-72
2022/01/04 00:25:40;;;;;;;18.27;7.63;;;;;;;8.57;100.00;100176.84;4840538;29;20479;-72
2022/01/04 00:28:07;;;;;;;21.48;7.43;;;;;;;8.57;100.00;100171.56;4843391;29;20045;-72
2022/01/04 00:30:37;;;;;;;20.40;8.30;;;;;;;8.53;100.00;100162.09;4843299;29;20029;-72
2022/01/04 00:33:04;;;;;;;22.58;8.35;;;;;;;8.53;100.00;100164.72;4843532;29;20061;-72
2022/01/04 00:35:29;;;;;;;19.77;8.20;;;;;;;8.49;100.00;100148.19;4836291;29;20400;-73
2022/01/04 00:37:55;;;;;;;18.75;7.90;;;;;;;8.48;100.00;100151.72;4825004;29;20109;-72
2022/01/04 00:40:21;;;;;;;21.27;7.65;;;;;;;8.50;100.00;100131.41;4824924;29;20046;-73
2022/01/04 00:42:46;;;;;;;15.65;7.88;;;;;;;8.48;100.00;100148.25;4824959;29;20476;-72
2022/01/04 00:45:11;;;;;;;16.25;6.90;;;;;;;8.48;100.00;100149.09;4829393;29;20036;-72
2022/01/04 00:49:09;;;;;;;20.88;7.82;;;;;;;8.46;100.00;100134.25;4842247;29;20475;-73
2022/01/04 00:50:29;;;;;;;16.43;8.00;;;;;;;8.43;100.00;100137.88;4842914;29;20045;-73
2022/01/04 00:52:57;;;;;;;26.83;8.15;;;;;;;8.45;100.00;100135.16;4842686;29;20279;-73
2022/01/04 00:55:23;;;;;;;16.23;7.82;;;;;;;8.43;100.00;100127.31;4842542;29;20073;-73
2022/01/04 00:57:48;;;;;;;18.35;7.70;;;;;;;8.45;100.00;100128.13;4827495;29;20049;-72
2022/01/04 01:00:15;;;;;;;21.63;8.15;;;;;;;8.43;100.00;100121.19;4824489;29;20026;-72
2022/01/04 01:02:41;;;;;;;22.38;8.73;;;;;;;8.45;100.00;100119.31;4824630;29;20543;-72
2022/01/04 01:05:08;;;;;;;22.92;7.38;;;;;;;8.43;100.00;100115.91;4832207;29;20116;-73
2022/01/04 01:07:34;;;;;;;16.85;8.13;;;;;;;8.41;100.00;100101.94;4832198;29;20038;-72
2022/01/04 01:10:35;;;;;;;18.60;8.70;;;;;;;8.38;100.00;100108.22;4824167;29;20030;-73
2022/01/04 01:13:00;;;;;;;20.35;8.50;;;;;;;8.31;100.00;100104.16;4823955;29;20458;-72
2022/01/04 01:15:26;;;;;;;25.05;9.15;;;;;;;8.36;100.00;100110.06;4824365;29;20074;-73
2022/01/04 01:17:51;;;;;;;20.70;9.10;;;;;;;8.36;100.00;100103.03;4833962;29;20070;-72
2022/01/04 01:20:17;;;;;;;17.27;8.70;;;;;;;8.40;100.00;100105.50;4842367;29;20489;-73
2022/01/04 01:22:43;;;;;;;16.02;8.38;;;;;;;8.40;100.00;100092.31;4842370;29;20034;-72
2022/01/04 01:25:09;;;;;;;24.88;9.25;;;;;;;8.43;100.00;100094.81;4842252;29;20037;-73
2022/01/04 01:27:35;;;;;;;18.95;8.73;;;;;;;8.39;100.00;100087.94;4841418;29;20030;-73
2022/01/04 01:30:00;;;;;;;18.02;8.90;;;;;;;8.41;100.00;100091.38;4842235;29;20034;-73
2022/01/04 01:32:25;;;;;;;20.77;9.52;;;;;;;8.39;100.00;100087.94;4842334;29;20399;-73
2022/01/04 01:34:51;;;;;;;18.73;8.98;;;;;;;8.40;100.00;100087.91;4842132;29;20034;-72
2022/01/04 01:37:16;;;;;;;15.63;8.45;;;;;;;8.41;100.00;100084.31;4841764;29;20090;-72
2022/01/04 01:39:42;;;;;;;19.70;9.40;;;;;;;8.44;100.00;100080.66;4841758;29;20414;-71
2022/01/04 01:42:07;;;;;;;21.05;8.88;;;;;;;8.42;100.00;100069.34;4842123;29;20067;-72
2022/01/04 01:44:35;;;;;;;19.10;8.75;;;;;;;8.40;100.00;100077.34;4842404;29;20026;-72
2022/01/04 01:47:00;;;;;;;19.90;9.38;;;;;;;8.42;100.00;100064.91;4842067;29;20387;-72
2022/01/04 01:49:26;;;;;;;17.95;9.10;;;;;;;8.41;100.00;100059.72;4841259;29;20022;-73
2022/01/04 01:51:52;;;;;;;23.58;10.40;;;;;;;8.42;100.00;100056.16;4841938;29;20413;-72
2022/01/04 01:54:18;;;;;;;18.52;8.98;;;;;;;8.41;100.00;100057.09;4841700;29;20403;-72
2022/01/04 01:56:43;;;;;;;15.48;9.07;;;;;;;8.42;100.00;100056.16;4841667;29;20040;-73
2022/01/04 01:59:08;;;;;;;22.95;9.70;;;;;;;8.38;100.00;100060.72;4841222;29;20037;-72
2022/01/04 02:01:34;;;;;;;13.52;8.35;;;;;;;8.40;100.00;100063.28;4841721;29;20117;-72
2022/01/04 02:03:59;;;;;;;18.60;9.02;;;;;;;8.39;100.00;100043.09;4841921;29;20504;-72
2022/01/04 02:06:29;;;;;;;19.58;8.82;;;;;;;8.39;100.00;100038.69;4841849;29;20040;-72
2022/01/04 02:08:56;;;;;;;16.77;8.85;;;;;;;8.37;100.00;100035.25;4841341;29;20029;-72
2022/01/04 02:11:21;;;;;;;17.73;8.30;;;;;;;8.36;100.00;100034.44;4841261;29;20046;-72
2022/01/04 02:13:46;;;;;;;19.52;8.50;;;;;;;8.39;100.00;100022.00;4841623;29;20087;-71
2022/01/04 02:16:13;;;;;;;23.00;8.98;;;;;;;8.36;100.00;100025.63;4841815;29;20094;-71
2022/01/04 02:18:38;;;;;;;16.17;8.45;;;;;;;8.30;100.00;100028.56;4841624;29;20034;-73
2022/01/04 02:21:03;;;;;;;16.20;8.85;;;;;;;8.33;100.00;100018.72;4844440;29;20128;-74
2022/01/04 02:23:29;;;;;;;23.95;8.50;;;;;;;8.34;100.00;100014.31;4845408;29;20026;-72
2022/01/04 02:25:56;;;;;;;18.88;8.73;;;;;;;8.29;100.00;100018.97;4845517;29;20030;-74
2022/01/04 02:28:21;;;;;;;22.02;8.70;;;;;;;8.32;100.00;100008.25;4845560;29;20044;-74
2022/01/04 02:30:48;;;;;;;16.15;8.25;;;;;;;8.27;100.00;100005.84;4844798;29;20373;-73
2022/01/04 02:33:14;;;;;;;17.60;8.32;;;;;;;8.29;100.00;100011.06;4844760;29;20510;-74
2022/01/04 02:35:39;;;;;;;13.93;8.43;;;;;;;8.29;100.00;100000.50;4845218;29;20069;-73
2022/01/04 02:38:05;;;;;;;16.15;8.25;;;;;;;8.30;100.00;99991.63;4845021;29;20120;-73
2022/01/04 02:40:31;;;;;;;18.02;7.93;;;;;;;8.31;100.00;99991.59;4845082;29;20044;-73
2022/01/04 02:42:57;;;;;;;20.30;7.53;;;;;;;8.29;100.00;99977.59;4843464;29;20045;-73
2022/01/04 02:45:23;;;;;;;16.70;8.60;;;;;;;8.24;100.00;99982.25;4844812;29;20041;-73
2022/01/04 02:47:48;;;;;;;23.27;7.80;;;;;;;8.23;100.00;99980.53;4845011;29;20033;-72
2022/01/04 02:50:14;;;;;;;13.82;7.55;;;;;;;8.24;100.00;99984.06;4845242;29;20030;-73
2022/01/04 02:52:39;;;;;;;20.45;7.97;;;;;;;8.24;100.00;99973.50;4844416;29;20398;-73
2022/01/04 02:55:08;;;;;;;21.80;8.20;;;;;;;8.28;100.00;99969.78;4844573;29;20125;-73
2022/01/04 02:57:34;;;;;;;18.50;8.30;;;;;;;8.23;100.00;99966.50;4844840;29;20038;-73
2022/01/04 02:59:59;;;;;;;18.20;8.50;;;;;;;8.23;100.00;99966.50;4844886;29;20114;-71
2022/01/04 03:02:26;;;;;;;20.52;8.35;;;;;;;8.23;100.00;99951.53;4844532;29;20522;-72
2022/01/04 03:04:51;;;;;;;19.90;8.25;;;;;;;8.23;100.00;99946.25;4844054;29;20474;-73
2022/01/04 03:07:17;;;;;;;17.65;8.45;;;;;;;8.23;100.00;99954.16;4844402;29;20118;-73
2022/01/04 03:09:43;;;;;;;22.45;8.77;;;;;;;8.21;100.00;99942.84;4844863;29;20034;-73
2022/01/04 03:12:09;;;;;;;23.52;9.23;;;;;;;8.18;100.00;99938.59;4844274;29;20057;-73
2022/01/04 03:14:34;;;;;;;22.17;9.40;;;;;;;8.20;100.00;99933.22;4844339;29;20112;-73
2022/01/04 03:17:00;;;;;;;18.23;9.02;;;;;;;8.19;100.00;99923.59;4844070;29;20559;-73
2022/01/04 03:19:26;;;;;;;22.35;9.55;;;;;;;8.19;100.00;99924.44;4844533;29;20038;-73
2022/01/04 03:21:51;;;;;;;17.75;10.32;;;;;;;8.21;100.00;99927.03;4844355;29;20040;-73
2022/01/04 03:24:17;;;;;;;24.60;10.55;;;;;;;8.16;100.00;99916.69;4844355;29;20040;-73
2022/01/04 03:26:43;;;;;;;25.35;10.60;;;;;;;8.14;100.00;99905.38;4844117;29;20475;-74
2022/01/04 03:29:11;;;;;;;24.08;10.55;;;;;;;8.14;100.00;99899.25;4844660;29;20130;-73
2022/01/04 03:31:37;;;;;;;22.23;10.23;;;;;;;8.18;100.00;99904.31;4844031;29;20026;-73
2022/01/04 03:34:03;;;;;;;24.40;11.27;;;;;;;8.15;100.00;99891.25;4843809;29;20121;-72
2022/01/04 03:36:29;;;;;;;23.42;11.10;;;;;;;8.12;100.00;99883.50;4843943;29;20152;-73
2022/01/04 03:38:56;;;;;;;21.80;10.27;;;;;;;8.12;100.00;99880.00;4844171;29;20034;-73
2022/01/04 03:41:24;;;;;;;21.60;11.10;;;;;;;8.06;100.00;99880.31;4844428;29;20028;-74
2022/01/04 03:43:50;;;;;;;22.15;12.30;;;;;;;8.06;100.00;99878.53;4843854;29;20090;-74
2022/01/04 03:46:16;;;;;;;23.27;11.52;;;;;;;8.05;100.00;99871.56;4843504;29;20049;-73
2022/01/04 03:48:42;;;;;;;19.48;11.25;;;;;;;8.06;100.00;99875.03;4844185;29;20034;-73
2022/01/04 03:51:08;;;;;;;26.15;11.15;;;;;;;8.08;100.00;99868.78;4844090;29;20032;-73
2022/01/04 03:53:34;;;;;;;18.60;10.50;;;;;;;8.08;100.00;99855.59;4843481;29;20090;-73
2022/01/04 03:55:59;;;;;;;21.05;10.63;;;;;;;8.08;100.00;99858.22;4843888;29;20117;-73
2022/01/04 03:58:25;;;;;;;19.33;10.27;;;;;;;8.10;100.00;99848.44;4843528;29;20539;-73
2022/01/04 04:00:50;;;;;;;22.45;10.00;;;;;;;8.11;100.00;99852.78;4844106;29;20102;-73
2022/01/04 04:03:16;;;;;;;21.63;10.07;;;;;;;8.10;100.00;99831.78;4843463;29;20098;-74
2022/01/04 04:05:42;;;;;;;21.60;10.15;;;;;;;8.11;100.00;99844.88;4842325;29;20045;-73
2022/01/04 04:08:07;;;;;;;28.70;11.27;;;;;;;8.10;100.00;99845.81;4857654;29;20026;-73
2022/01/04 04:10:33;;;;;;;20.45;10.82;;;;;;;8.08;100.00;99831.88;4843476;29;20114;-74
2022/01/04 04:12:58;;;;;;;20.63;11.65;;;;;;;8.04;100.00;99831.16;4843880;29;20426;-72
2022/01/04 04:15:23;;;;;;;22.15;11.70;;;;;;;8.02;100.00;99822.47;4842994;29;20474;-73
2022/01/04 04:17:49;;;;;;;18.90;10.95;;;;;;;8.08;100.00;99838.91;4843204;29;20083;-73
2022/01/04 04:20:14;;;;;;;18.67;11.65;;;;;;;8.06;100.00;99832.84;4843168;29;20077;-73
2022/01/04 04:22:40;;;;;;;22.40;11.77;;;;;;;8.07;100.00;99830.16;4843469;29;20045;-73
2022/01/04 04:25:06;;;;;;;22.30;11.90;;;;;;;8.04;100.00;99830.28;4843140;29;20034;-73
2022/01/04 04:27:32;;;;;;;24.65;11.77;;;;;;;8.03;100.00;99834.72;4843253;29;20057;-73
2022/01/04 04:29:58;;;;;;;23.25;11.70;;;;;;;8.04;100.00;99825.00;4842827;29;20041;-73
2022/01/04 04:32:23;;;;;;;20.38;11.10;;;;;;;8.00;100.00;99820.84;4843165;29;20033;-73
2022/01/04 04:34:49;;;;;;;19.63;10.50;;;;;;;8.01;100.00;99809.38;4843164;29;20030;-72
2022/01/04 04:37:14;;;;;;;19.73;11.60;;;;;;;8.00;100.00;99807.66;4842891;29;20113;-73
2022/01/04 04:39:39;;;;;;;23.05;12.10;;;;;;;8.01;100.00;99799.66;4842766;29;20437;-73
2022/01/04 04:42:05;;;;;;;22.75;11.95;;;;;;;8.01;100.00;99790.91;4842559;29;20032;-73
2022/01/04 04:44:30;;;;;;;19.02;11.65;;;;;;;8.03;100.00;99792.53;4843125;29;20026;-74
2022/01/04 04:46:56;;;;;;;23.98;12.38;;;;;;;8.01;100.00;99791.75;4842783;29;20045;-73
2022/01/04 04:49:21;;;;;;;24.55;12.35;;;;;;;8.05;100.00;99792.44;4842849;29;20030;-73
2022/01/04 04:51:47;;;;;;;23.42;13.60;;;;;;;8.04;100.00;99804.78;4842867;29;20033;-72
2022/01/04 04:54:13;;;;;;;23.40;13.43;;;;;;;8.03;100.00;99787.25;4843161;29;20109;-73
2022/01/04 04:56:38;;;;;;;22.00;12.93;;;;;;;8.00;100.00;99789.19;4842527;29;20037;-73
2022/01/04 04:59:05;;;;;;;23.75;13.23;;;;;;;8.01;100.00;99789.13;4842746;29;20550;-72
2022/01/04 05:01:30;;;;;;;23.02;12.68;;;;;;;8.00;100.00;99782.13;4842534;29;20104;-73
2022/01/04 05:03:55;;;;;;;18.23;11.13;;;;;;;7.99;100.00;99784.84;4842656;29;20121;-72
2022/01/04 05:06:21;;;;;;;24.92;11.60;;;;;;;7.95;100.00;99794.69;4842821;29;20022;-72
2022/01/04 05:08:46;;;;;;;18.42;11.10;;;;;;;7.95;100.00;99772.75;4842235;29;20030;-73
2022/01/04 05:11:11;;;;;;;20.45;10.40;;;;;;;7.97;100.00;99771.75;4842165;29;20045;-73
2022/01/04 05:13:36;;;;;;;21.35;10.73;;;;;;;8.00;100.00;99783.94;4842916;29;20129;-72
2022/01/04 05:16:02;;;;;;;16.90;9.70;;;;;;;7.95;100.00;99776.25;4842429;29;20475;-72
2022/01/04 05:18:27;;;;;;;18.52;10.30;;;;;;;7.97;100.00;99771.75;4842135;29;20038;-73
2022/01/04 05:20:53;;;;;;;20.58;9.80;;;;;;;7.97;100.00;99776.19;4842395;29;20517;-72
2022/01/04 05:23:18;;;;;;;18.92;9.32;;;;;;;7.95;100.00;99764.84;4842238;29;20030;-73
2022/01/04 05:25:43;;;;;;;17.70;10.00;;;;;;;7.90;100.00;99773.00;4842221;29;20498;-73
2022/01/04 05:28:09;;;;;;;17.20;9.20;;;;;;;7.90;100.00;99774.78;4841920;29;20030;-72
2022/01/04 05:30:34;;;;;;;14.13;9.35;;;;;;;7.90;100.00;99759.81;4842403;29;20078;-72
2022/01/04 05:32:59;;;;;;;20.98;9.60;;;;;;;7.84;100.00;99765.41;4841991;29;20531;-72
2022/01/04 05:35:27;;;;;;;17.45;9.73;;;;;;;7.79;100.00;99757.72;4841899;29;20447;-73
2022/01/04 05:37:52;;;;;;;17.60;9.60;;;;;;;7.81;100.00;99762.91;4841668;29;20109;-72
2022/01/04 05:40:18;;;;;;;17.15;9.75;;;;;;;7.81;100.00;99753.25;4842025;29;20117;-72
2022/01/04 05:42:43;;;;;;;23.33;9.85;;;;;;;7.83;100.00;99753.16;4841957;29;20045;-72
2022/01/04 05:45:09;;;;;;;18.70;9.02;;;;;;;7.86;100.00;99753.00;4842067;29;20102;-73
2022/01/04 05:47:34;;;;;;;18.08;9.90;;;;;;;7.82;100.00;99749.66;4842308;29;20045;-72
2022/01/04 05:49:59;;;;;;;16.48;8.60;;;;;;;7.80;100.00;99755.94;4841473;29;20539;-72
2022/01/04 05:52:24;;;;;;;21.05;9.25;;;;;;;7.80;100.00;99748.91;4841984;29;20509;-73
2022/01/04 05:54:51;;;;;;;18.25;9.18;;;;;;;7.83;100.00;99753.16;4840870;29;20026;-72
2022/01/04 05:57:17;;;;;;;18.10;9.18;;;;;;;7.80;100.00;99740.13;4841965;29;20030;-73
2022/01/04 05:59:43;;;;;;;16.23;9.88;;;;;;;7.79;100.00;99741.09;4841330;29;20036;-73
2022/01/04 06:02:08;;;;;;;18.45;9.77;;;;;;;7.76;100.00;99725.41;4841951;29;20117;-72
2022/01/04 06:04:33;;;;;;;19.70;9.95;;;;;;;7.81;100.00;99731.28;4841507;29;20038;-72
2022/01/04 06:06:59;;;;;;;17.50;9.98;;;;;;;7.77;100.00;99724.47;4841863;29;20137;-72
2022/01/04 06:09:28;;;;;;;20.52;10.60;;;;;;;7.78;100.00;99721.75;4841435;29;20079;-73
2022/01/04 06:11:58;;;;;;;17.77;10.10;;;;;;;7.75;100.00;99721.94;4839392;29;20054;-72
2022/01/04 06:17:09;;;;;;;19.50;10.90;;;;;;;7.71;100.00;99718.59;4839371;29;20065;-72
2022/01/04 06:19:35;;;;;;;18.67;11.00;;;;;;;7.69;100.00;99720.44;4840380;29;20022;-72
2022/01/04 06:22:01;;;;;;;19.60;10.73;;;;;;;7.74;100.00;99738.66;4840677;29;20041;-71
2022/01/04 06:24:26;;;;;;;24.25;11.77;;;;;;;7.77;100.00;99729.75;4831053;29;20104;-72
2022/01/04 06:26:52;;;;;;;21.25;11.40;;;;;;;7.77;100.00;99724.47;4836585;29;20056;-73
2022/01/04 06:29:20;;;;;;;19.92;11.57;;;;;;;7.76;100.00;99728.03;4841819;29;20082;-72
2022/01/04 06:31:45;;;;;;;22.98;11.15;;;;;;;7.72;100.00;99703.63;4841907;29;20475;-73
2022/01/04 06:34:11;;;;;;;23.60;11.52;;;;;;;7.70;100.00;99694.97;4841938;29;20094;-72
2022/01/04 06:36:36;;;;;;;22.58;11.50;;;;;;;7.68;100.00;99688.91;4838727;29;20034;-72
2022/01/04 06:39:03;;;;;;;19.70;11.23;;;;;;;7.66;100.00;99685.47;4835958;29;20086;-72
2022/01/04 06:41:28;;;;;;;23.48;11.25;;;;;;;7.65;100.00;99679.38;4840923;29;20088;-73
2022/01/04 06:43:53;;;;;;;24.00;12.23;;;;;;;7.67;100.00;99664.34;4841516;29;20121;-73
2022/01/04 06:46:19;;;;;;;20.75;11.73;;;;;;;7.70;100.00;99681.78;4842007;29;20026;-73
2022/01/04 06:48:44;;;;;;;25.75;11.65;;;;;;;7.70;100.00;99689.69;4841226;29;20492;-72
2022/01/04 06:51:09;;;;;;;20.55;10.95;;;;;;;7.71;100.00;99686.97;4841654;29;20107;-73
2022/01/04 06:53:35;;;;;;;21.73;11.43;;;;;;;7.75;100.00;99697.34;4837715;29;20033;-72
2022/01/04 06:56:00;;;;;;;20.83;11.23;;;;;;;7.77;100.00;99696.34;4841653;29;20045;-73
2022/01/04 06:58:26;;;;;;;26.15;11.65;;;;;;;7.76;100.00;99689.34;4841023;29;20420;-74
2022/01/04 07:00:51;;;;;;;21.33;10.40;;;;;;;7.77;100.00;99682.31;4841586;29;20053;-72
2022/01/04 07:03:17;;;;;;;19.92;10.45;;;;;;;7.80;100.00;99683.00;4841397;29;20033;-73
2022/01/04 07:05:42;;;;;;;19.80;11.30;;;;;;;7.83;100.00;99682.84;4842579;29;20118;-72
2022/01/04 07:08:08;;;;;;;19.17;10.98;;;;;;;7.83;100.00;99669.66;4844189;29;20104;-72
2022/01/04 07:10:33;;;;;;;22.20;11.25;;;;;;;7.84;100.00;99670.53;4844864;29;20407;-74
2022/01/04 07:12:58;;;;;;;22.67;11.30;;;;;;;7.82;100.00;99656.56;4844913;29;20498;-73
2022/01/04 07:15:24;;;;;;;25.83;11.30;;;;;;;7.81;100.00;99654.88;4843735;29;20102;-73
2022/01/04 07:17:49;;;;;;;20.92;10.93;;;;;;;7.79;100.00;99662.84;4844592;29;20447;-72
2022/01/04 07:20:14;;;;;;;21.50;11.13;;;;;;;7.79;100.00;99656.75;4844331;29;20026;-72
2022/01/04 07:22:40;;;;;;;22.27;11.63;;;;;;;7.75;100.00;99661.31;4844490;29;20051;-72
2022/01/04 07:25:06;;;;;;;23.38;11.73;;;;;;;7.71;100.00;99670.28;4844564;29;20455;-71
2022/01/04 07:27:32;;;;;;;21.25;11.10;;;;;;;7.70;100.00;99658.06;4844013;29;20046;-72
2022/01/04 07:29:57;;;;;;;19.25;11.27;;;;;;;7.67;100.00;99653.81;4839588;29;20030;-73
2022/01/04 07:32:23;;;;;;;24.95;10.85;;;;;;;7.69;100.00;99644.03;4844694;29;20026;-73
2022/01/04 07:34:48;;;;;;;15.98;8.40;;;;;;;7.65;100.00;99658.28;4844232;29;20098;-74
2022/01/04 07:37:14;;;;;;;19.77;9.43;;;;;;;7.60;100.00;99672.66;4843966;29;20109;-72
2022/01/04 07:39:40;;;;;;;20.65;9.75;;;;;;;7.58;100.00;99667.44;4844041;29;20060;-72
2022/01/04 07:42:05;;;;;;;19.92;8.90;;;;;;;7.65;100.00;99670.63;4843989;29;20038;-72
2022/01/04 07:44:31;;;;;;;13.63;7.93;;;;;;;7.67;100.00;99679.28;4844476;29;20041;-74
2022/01/04 07:46:56;;;;;;;16.48;7.95;;;;;;;7.67;100.00;99674.03;4844258;29;20558;-73
2022/01/04 07:49:21;;;;;;;13.93;7.15;;;;;;;7.68;100.00;99652.00;4843947;29;20044;-73
2022/01/04 07:51:47;;;;;;;16.60;8.32;;;;;;;7.62;100.00;99655.84;4843420;29;20038;-74
2022/01/04 07:54:12;;;;;;;19.17;8.90;;;;;;;7.62;100.00;99661.09;4844205;29;20117;-74
2022/01/04 07:56:38;;;;;;;20.70;9.38;;;;;;;7.64;100.00;99677.66;4842574;29;20030;-73
2022/01/04 07:59:04;;;;;;;18.25;9.13;;;;;;;7.67;100.00;99669.63;4836899;29;20057;-72
2022/01/04 08:01:30;;;;;;;21.23;9.07;;;;;;;7.68;100.00;99670.47;4840681;29;20429;-73
2022/01/04 08:03:56;;;;;;;12.90;8.02;;;;;;;7.67;100.00;99674.03;4841864;29;20041;-74
2022/01/04 08:06:21;;;;;;;18.80;7.47;;;;;;;7.64;100.00;99667.13;4841218;29;20034;-74
2022/01/04 08:08:47;;;;;;;17.13;7.07;;;;;;;7.62;100.00;99681.31;4833399;29;20154;-74
2022/01/04 08:11:12;;;;;;;19.48;6.95;;;;;;;7.60;100.00;99683.19;4830293;29;20090;-73
2022/01/04 08:13:37;;;;;;;14.77;5.00;;;;;;;7.59;100.00;99676.22;4844088;29;20112;-73
2022/01/04 08:16:03;;;;;;;13.02;4.30;;;;;;;7.58;100.00;99671.88;4835478;29;20034;-73
2022/01/04 08:18:29;;;;;;;15.00;4.03;;;;;;;7.57;100.00;99676.28;4842439;29;20038;-73
2022/01/04 08:20:57;;;;;;;9.35;4.50;;;;;;;7.57;100.00;99683.31;4843466;29;20038;-71
2022/01/04 08:23:24;;;;;;;16.67;5.57;;;;;;;7.58;100.00;99690.31;4843540;29;20180;-73
2022/01/04 08:25:49;;;;;;;13.55;5.10;;;;;;;7.59;100.00;99699.91;4843869;29;20033;-73
2022/01/04 08:28:14;;;;;;;12.48;5.63;;;;;;;7.57;100.00;99700.00;4843794;29;20018;-74
2022/01/04 08:30:42;;;;;;;18.83;5.93;;;;;;;7.59;100.00;99700.75;4843888;29;20519;-73
2022/01/04 08:33:07;;;;;;;13.25;6.20;;;;;;;7.63;100.00;99707.56;4843535;29;20059;-72
2022/01/04 08:35:32;;;;;;;22.73;6.75;;;;;;;7.69;100.00;99711.69;4843249;29;20109;-73
2022/01/04 08:37:58;;;;;;;13.43;6.88;;;;;;;7.71;100.00;99713.31;4843505;29;20106;-72
2022/01/04 08:40:23;;;;;;;19.48;7.03;;;;;;;7.74;100.00;99722.84;4843017;29;20030;-72
2022/01/04 08:42:48;;;;;;;14.65;7.30;;;;;;;7.78;100.00;99721.75;4843028;29;20034;-73
2022/01/04 08:45:15;;;;;;;17.67;7.55;;;;;;;7.80;100.00;99719.91;4842816;29;20025;-73
2022/01/04 08:47:40;;;;;;;17.27;6.57;;;;;;;7.83;100.00;99737.34;4842564;29;20030;-73
2022/01/04 08:50:09;;;;;;;26.55;8.45;;;;;;;7.85;100.00;99730.19;4842467;29;20044;-72
2022/01/04 08:52:35;;;;;;;25.90;8.18;;;;;;;7.90;100.00;99722.06;4839929;29;20026;-72
2022/01/04 08:55:00;;;;;;;13.65;6.35;;;;;;;7.84;100.00;99718.81;4842144;29;20091;-73
2022/01/04 08:57:26;;;;;;;21.95;7.40;;;;;;;7.83;100.00;99725.00;4840619;29;20034;-72
2022/01/04 08:59:54;;;;;;;19.95;6.78;;;;;;;7.85;100.00;99717.88;4837449;29;20026;-73
2022/01/04 09:02:20;;;;;;;22.08;6.75;;;;;;;7.86;100.00;99719.59;4835197;29;20395;-73
2022/01/04 09:04:45;;;;;;;16.10;5.78;;;;;;;7.92;100.00;99713.16;4838905;29;20030;-72
2022/01/04 09:07:10;;;;;;;13.80;6.18;;;;;;;7.94;100.00;99710.41;4842789;29;20040;-73
2022/01/04 09:09:36;;;;;;;19.13;6.30;;;;;;;7.96;100.00;99703.28;4841448;29;20022;-72
2022/01/04 09:12:01;;;;;;;15.02;6.18;;;;;;;8.00;100.00;99708.31;4841868;29;20038;-72
2022/01/04 09:14:40;;;;;;;16.48;5.80;;;;;;;8.00;100.00;99726.75;4842861;29;20044;-74
2022/01/04 09:19:50;;;;;;;18.58;5.30;;;;;;;8.03;100.00;99710.81;4837267;29;20090;-74
2022/01/04 09:22:15;;;;;;;19.27;5.25;;;;;;;8.10;100.00;99713.13;4838106;29;20030;-72
2022/01/04 09:24:41;;;;;;;16.17;5.13;;;;;;;8.15;100.00;99706.66;4838400;29;20044;-73
2022/01/04 09:27:06;;;;;;;24.02;4.50;;;;;;;8.18;100.00;99716.19;4834836;29;20037;-73
2022/01/04 09:29:32;;;;;;;18.45;5.03;;;;;;;8.16;100.00;99715.44;4841312;29;20113;-73
2022/01/04 09:31:58;;;;;;;26.58;5.95;;;;;;;8.10;100.00;99719.25;4841597;29;20038;-74
2022/01/04 09:34:24;;;;;;;21.95;4.55;;;;;;;8.13;100.00;99721.72;4841903;29;20040;-72
2022/01/04 09:36:50;;;;;;;21.00;5.05;;;;;;;8.12;100.00;99719.16;4842359;29;20037;-73
2022/01/04 09:39:18;;;;;;;22.92;4.45;;;;;;;8.14;100.00;99726.03;4841994;29;20026;-73
2022/01/04 09:41:44;;;;;;;26.33;5.50;;;;;;;8.14;100.00;99726.03;4841344;29;20554;-73
2022/01/04 09:44:11;;;;;;;19.05;3.88;;;;;;;8.20;100.00;99731.00;4837278;29;20134;-72
2022/01/04 09:46:36;;;;;;;23.58;4.10;;;;;;;8.22;100.00;99730.91;4831252;29;20042;-72
2022/01/04 09:49:02;;;;;;;23.35;3.75;;;;;;;8.22;100.00;99735.34;4840973;29;20037;-73
2022/01/04 09:51:29;;;;;;;21.10;4.47;;;;;;;8.24;100.00;99729.06;4840618;29;20080;-72
2022/01/04 09:53:55;;;;;;;23.27;5.10;;;;;;;8.24;100.00;99728.22;4835682;29;20038;-72
2022/01/04 09:56:20;;;;;;;26.65;5.13;;;;;;;8.22;100.00;99724.81;4838888;29;20128;-73
2022/01/04 09:58:46;;;;;;;23.77;4.20;;;;;;;8.23;100.00;99735.25;4837539;29;20395;-73
2022/01/04 10:01:18;;;;;;;23.38;4.10;;;;;;;8.25;100.00;99730.78;4840449;29;20037;-74
2022/01/04 10:03:44;;;;;;;22.02;5.45;;;;;;;8.27;100.00;99726.25;4840903;29;20034;-73
2022/01/04 10:06:16;;;;;;;20.83;4.22;;;;;;;8.24;100.00;99736.97;4838901;29;20022;-72
2022/01/04 10:08:55;;;;;;;21.20;4.75;;;;;;;8.18;100.00;99730.25;4840625;29;20032;-72
2022/01/04 10:11:37;;;;;;;16.52;4.10;;;;;;;8.18;100.00;99732.03;4835473;29;20121;-74
2022/01/04 10:14:24;;;;;;;19.95;3.70;;;;;;;8.19;100.00;99731.94;4839837;29;20549;-74
2022/01/04 10:16:54;;;;;;;15.30;3.60;;;;;;;8.20;100.00;99727.53;4838123;29;20042;-72
2022/01/04 10:19:37;;;;;;;22.92;4.63;;;;;;;8.20;100.00;99712.53;4841658;29;20094;-73
2022/01/04 10:22:17;;;;;;;24.48;5.93;;;;;;;8.25;100.00;99714.94;4840832;29;20030;-73
2022/01/04 10:24:45;;;;;;;16.00;3.67;;;;;;;8.28;100.00;99716.56;4838327;29;20030;-72
2022/01/04 10:27:22;;;;;;;21.20;4.13;;;;;;;8.33;100.00;99720.66;4841105;29;20026;-73
2022/01/04 10:29:48;;;;;;;20.45;6.05;;;;;;;8.32;99.64;99710.19;4839663;29;20034;-73
2022/01/04 10:32:14;;;;;;;16.80;3.70;;;;;;;8.28;98.88;99708.66;4823440;29;20026;-73
2022/01/04 10:34:49;;;;;;;17.70;3.50;;;;;;;8.17;98.88;99714.47;4829008;29;20030;-73
2022/01/04 10:37:36;;;;;;;12.40;3.08;;;;;;;8.01;99.11;99715.28;4836690;29;20170;-73
2022/01/04 10:40:07;;;;;;;11.15;2.70;;;;;;;7.96;99.16;99717.31;4834153;29;20037;-73
2022/01/04 10:42:32;;;;;;;12.25;2.08;;;;;;;7.88;99.39;99725.63;4842312;29;20037;-73
2022/01/04 10:44:58;;;;;;;11.75;2.33;;;;;;;7.80;99.57;99729.59;4836642;29;20435;-72
2022/01/04 10:47:27;;;;;;;7.10;1.80;;;;;;;7.67;99.79;99727.59;4840972;29;20512;-73
2022/01/04 10:49:52;;;;;;;10.93;2.33;;;;;;;7.61;100.00;99724.38;4844699;29;20045;-73
2022/01/04 10:52:22;;;;;;;5.72;1.45;;;;;;;7.46;99.34;99729.50;4843996;29;20030;-72
2022/01/04 10:55:14;;;;;;;6.55;1.27;;;;;;;7.40;99.83;99734.22;4841074;29;20030;-73
2022/01/04 10:57:40;;;;;;;12.38;2.00;;;;;;;7.39;99.79;99730.72;4840307;29;20038;-72
2022/01/04 11:00:16;;;;;;;6.47;1.75;;;;;;;7.34;100.00;99741.50;4841161;29;20026;-72
2022/01/04 11:02:41;;;;;;;7.60;1.70;;;;;;;7.40;100.00;99747.41;4843902;29;20034;-73
2022/01/04 11:05:17;;;;;;;7.55;1.40;;;;;;;7.45;100.00;99740.13;4843798;29;20436;-72
2022/01/04 11:08:03;;;;;;;8.80;1.60;;;;;;;7.42;99.64;99743.75;4844481;29;20089;-73
2022/01/04 11:10:31;;;;;;;8.82;1.30;;;;;;;7.42;99.17;99754.31;4842846;29;20106;-73
2022/01/04 11:12:58;;;;;;;9.65;1.60;;;;;;;7.37;98.47;99751.88;4841391;29;20030;-73
2022/01/04 11:15:25;;;;;;;10.05;1.52;;;;;;;7.38;99.68;99750.13;4843537;29;20072;-73
2022/01/04 11:17:50;;;;;;;7.65;1.95;;;;;;;7.38;98.91;99755.38;4844105;29;20075;-72
2022/01/04 11:20:15;;;;;;;5.85;1.20;;;;;;;7.41;98.29;99759.66;4837681;29;20058;-73
2022/01/04 11:22:45;;;;;;;5.13;1.20;;;;;;;7.41;97.84;99771.03;4844249;29;20487;-73
2022/01/04 11:25:13;;;;;;;8.95;1.90;;;;;;;7.39;97.30;99770.25;4843914;29;20041;-73